Jordan Village, Connecticut
Current Conditions -  °F | °C
As of 12:56 AM on Wednesday 22 Oct 2014 (Local Time) from KGON Reporting Station
Scattered Clouds Scattered Clouds  
Wind Chill: 56°   Ceiling: Unl
Heat Index: 56°   Visibility: 10mi
Dew Point: 53°   Wind: 12mph
Humidity: 90%   Direction: 30°NNE
Pressure: 29.91"   Gusts: NA
Location:  41.3583°N, 72.1558°W
Report Text: KGON 220456Z AUTO 03010KT 10SM SCT013 13/12 A2991 RMK AO2 SLP129 T01330117 401890089
Loading
Personal Weather Stations






























Interactive Weather Map
Tropical Storm Tracking
New forecast layout! Learn more

10-Day Weather Forecast

Advertisements
Track Severe Weather on mobile